createdAt,value
2023-05-09T00:00:20.260Z,7.23
2023-05-09T00:01:53.760Z,7.07
2023-05-09T00:03:28.478Z,7.03
2023-05-09T00:05:03.582Z,6.90
2023-05-09T00:06:37.547Z,7.23
2023-05-09T00:08:11.146Z,7.00
2023-05-09T00:09:44.247Z,6.83
2023-05-09T00:11:17.335Z,6.57
2023-05-09T00:12:50.783Z,6.40
2023-05-09T00:14:24.791Z,6.83
2023-05-09T00:15:58.491Z,5.83
2023-05-09T00:17:31.771Z,6.80
2023-05-09T00:19:07.098Z,6.33
2023-05-09T00:20:40.985Z,6.67
2023-05-09T00:22:14.320Z,6.80
2023-05-09T00:23:48.138Z,7.07
2023-05-09T00:25:21.250Z,6.60
2023-05-09T00:26:53.322Z,6.97
2023-05-09T00:28:26.503Z,6.53
2023-05-09T00:29:58.693Z,6.23
2023-05-09T00:31:32.127Z,6.43
2023-05-09T00:33:06.188Z,6.20
2023-05-09T00:34:41.102Z,6.30
2023-05-09T00:36:13.335Z,6.37
2023-05-09T00:37:46.525Z,6.10
2023-05-09T00:39:19.664Z,6.20
2023-05-09T00:40:52.868Z,5.83
2023-05-09T00:42:25.030Z,6.40
2023-05-09T00:43:58.090Z,6.33
2023-05-09T00:45:31.573Z,5.80
2023-05-09T00:47:03.694Z,5.70
2023-05-09T00:48:37.058Z,6.17
2023-05-09T00:50:12.112Z,5.97
2023-05-09T00:51:44.399Z,5.83
2023-05-09T00:53:17.487Z,5.40
2023-05-09T00:54:50.801Z,5.47
2023-05-09T00:56:23.019Z,6.00
2023-05-09T00:57:56.248Z,6.10
2023-05-09T00:59:28.537Z,5.97
2023-05-09T01:01:03.802Z,5.90
2023-05-09T01:02:37.410Z,5.87
2023-05-09T01:04:10.919Z,5.43
2023-05-09T01:05:53.558Z,5.57
2023-05-09T01:07:35.143Z,5.67
2023-05-09T01:09:15.271Z,5.80
2023-05-09T01:10:56.096Z,5.80
2023-05-09T01:12:38.300Z,5.63
2023-05-09T01:14:16.051Z,5.33
2023-05-09T01:15:55.497Z,5.60
2023-05-09T01:17:35.907Z,5.80
2023-05-09T01:19:28.201Z,6.03
2023-05-09T01:21:08.866Z,5.77
2023-05-09T01:22:47.589Z,5.53
2023-05-09T01:24:34.208Z,5.50
2023-05-09T01:26:14.886Z,5.90
2023-05-09T01:27:58.626Z,5.93
2023-05-09T01:29:39.261Z,5.70
2023-05-09T01:31:13.236Z,5.80
2023-05-09T01:32:50.802Z,5.70
2023-05-09T01:34:27.433Z,5.77
2023-05-09T01:36:05.627Z,5.63
2023-05-09T01:37:43.000Z,6.10
2023-05-09T01:39:18.837Z,5.77
2023-05-09T01:40:55.903Z,5.67
2023-05-09T01:42:33.866Z,5.87
2023-05-09T01:44:10.786Z,5.80
2023-05-09T01:45:46.026Z,5.90
2023-05-09T01:47:20.811Z,5.87
2023-05-09T01:48:54.424Z,6.43
2023-05-09T01:50:30.483Z,6.40
2023-05-09T01:52:05.821Z,6.00
2023-05-09T01:53:39.166Z,5.80
2023-05-09T01:55:13.706Z,6.00
2023-05-09T01:56:47.916Z,5.63
2023-05-09T01:58:21.286Z,6.50
2023-05-09T01:59:55.427Z,5.53
2023-05-09T02:01:30.866Z,5.83
2023-05-09T02:03:05.740Z,5.87
2023-05-09T02:04:40.143Z,5.77
2023-05-09T02:06:13.776Z,6.00
2023-05-09T02:07:47.633Z,6.17
2023-05-09T02:09:21.748Z,6.37
2023-05-09T02:10:53.893Z,6.27
2023-05-09T02:12:27.213Z,6.23
2023-05-09T02:14:00.746Z,6.17
2023-05-09T02:15:34.088Z,5.90
2023-05-09T02:17:09.596Z,6.20
2023-05-09T02:18:42.829Z,6.33
2023-05-09T02:20:14.976Z,6.50
2023-05-09T02:21:48.130Z,5.83
2023-05-09T02:23:20.669Z,5.80
2023-05-09T02:24:53.896Z,5.93
2023-05-09T02:26:27.965Z,5.90
2023-05-09T02:28:02.374Z,6.17
2023-05-09T02:29:40.501Z,5.80
2023-05-09T02:31:15.541Z,5.33
2023-05-09T02:32:50.633Z,5.70
2023-05-09T02:34:26.246Z,5.67
2023-05-09T02:35:59.557Z,5.60
2023-05-09T02:37:31.877Z,5.80
2023-05-09T02:39:05.156Z,5.90
2023-05-09T02:40:38.492Z,6.00
2023-05-09T02:42:12.841Z,6.13
2023-05-09T02:43:46.033Z,6.23
2023-05-09T02:45:18.213Z,5.70
2023-05-09T02:46:51.325Z,5.90
2023-05-09T02:48:24.867Z,6.07
2023-05-09T02:49:57.993Z,6.37
2023-05-09T02:51:31.841Z,5.77
2023-05-09T02:53:05.433Z,5.67
2023-05-09T02:54:38.640Z,6.40
2023-05-09T02:56:11.753Z,6.37
2023-05-09T02:57:44.259Z,6.13
2023-05-09T02:59:18.867Z,6.27
2023-05-09T03:00:52.020Z,5.77
2023-05-09T03:02:25.184Z,5.40
2023-05-09T03:03:59.883Z,6.10
2023-05-09T03:05:33.008Z,5.57
2023-05-09T03:07:06.131Z,6.53
2023-05-09T03:08:40.064Z,6.30
2023-05-09T03:10:13.837Z,6.10
2023-05-09T03:11:47.991Z,5.43
2023-05-09T03:13:21.508Z,5.73
2023-05-09T03:14:53.779Z,5.67
2023-05-09T03:16:26.936Z,5.63
2023-05-09T03:17:59.197Z,5.90
2023-05-09T03:19:33.881Z,5.43
2023-05-09T03:21:07.135Z,4.80
2023-05-09T03:22:42.437Z,5.87
2023-05-09T03:24:17.725Z,6.00
2023-05-09T03:25:50.793Z,5.90
2023-05-09T03:27:24.023Z,5.63
2023-05-09T03:28:57.485Z,5.53
2023-05-09T03:30:30.882Z,5.83
2023-05-09T03:32:04.401Z,5.83
2023-05-09T03:33:37.518Z,5.30
2023-05-09T03:35:12.262Z,5.33
2023-05-09T03:36:45.873Z,5.83
2023-05-09T03:38:23.947Z,5.57
2023-05-09T03:39:57.069Z,5.80
2023-05-09T03:41:30.705Z,5.33
2023-05-09T03:43:03.868Z,5.70
2023-05-09T03:44:37.131Z,5.83
2023-05-09T03:46:10.421Z,5.93
2023-05-09T03:47:43.699Z,6.40
2023-05-09T03:49:17.781Z,6.40
2023-05-09T03:50:53.405Z,6.30
2023-05-09T03:52:27.266Z,5.40
2023-05-09T03:54:00.838Z,5.60
2023-05-09T03:55:34.668Z,5.93
2023-05-09T03:57:08.125Z,5.63
2023-05-09T03:58:40.337Z,6.33
2023-05-09T04:00:14.234Z,5.67
2023-05-09T04:01:47.539Z,6.30
2023-05-09T04:03:19.946Z,5.60
2023-05-09T04:04:55.195Z,5.30
2023-05-09T04:06:31.118Z,5.70
2023-05-09T04:08:05.327Z,5.33
2023-05-09T04:09:39.272Z,5.87
2023-05-09T04:11:12.576Z,5.80
2023-05-09T04:12:48.946Z,5.43
2023-05-09T04:14:23.399Z,5.17
2023-05-09T04:15:56.326Z,5.60
2023-05-09T04:17:29.855Z,5.23
2023-05-09T04:19:02.985Z,5.23
2023-05-09T04:20:36.156Z,4.90
2023-05-09T04:22:10.937Z,5.00
2023-05-09T04:23:44.676Z,4.93
2023-05-09T04:25:20.762Z,5.17
2023-05-09T04:26:54.788Z,4.50
2023-05-09T04:28:30.388Z,5.00
2023-05-09T04:30:03.839Z,4.60
2023-05-09T04:31:40.993Z,5.20
2023-05-09T04:33:17.073Z,4.70
2023-05-09T04:34:50.727Z,4.57
2023-05-09T04:36:28.971Z,4.03
2023-05-09T04:38:05.551Z,4.70
2023-05-09T04:39:38.781Z,4.60
2023-05-09T04:41:21.385Z,4.33
2023-05-09T04:42:54.570Z,4.30
2023-05-09T04:44:30.829Z,4.30
2023-05-09T04:46:05.502Z,4.53
2023-05-09T04:47:39.656Z,4.10
2023-05-09T04:49:12.784Z,4.20
2023-05-09T04:50:48.499Z,4.23
2023-05-09T04:52:21.721Z,4.17
2023-05-09T04:53:56.338Z,4.10
2023-05-09T04:55:35.697Z,4.03
2023-05-09T04:57:17.493Z,4.27
2023-05-09T04:58:54.917Z,4.13
2023-05-09T05:00:28.042Z,3.90
2023-05-09T05:02:01.438Z,3.90
2023-05-09T05:03:34.828Z,4.10
2023-05-09T05:05:17.904Z,4.07
2023-05-09T05:06:51.152Z,4.33
2023-05-09T05:08:24.495Z,4.10
2023-05-09T05:09:59.425Z,3.63
2023-05-09T05:11:32.677Z,3.90
2023-05-09T05:13:06.265Z,4.00
2023-05-09T05:14:40.416Z,4.33
2023-05-09T05:16:15.352Z,4.10
2023-05-09T05:17:48.571Z,4.20
2023-05-09T05:19:23.598Z,4.20
2023-05-09T05:20:57.747Z,3.90
2023-05-09T05:22:32.791Z,4.40
2023-05-09T05:24:06.283Z,4.07
2023-05-09T05:25:41.068Z,4.03
2023-05-09T05:27:13.217Z,3.80
2023-05-09T05:28:47.017Z,3.93
2023-05-09T05:30:20.988Z,3.60
2023-05-09T05:31:54.771Z,3.43
2023-05-09T05:33:27.933Z,3.73
2023-05-09T05:35:02.619Z,3.33
2023-05-09T05:36:36.161Z,3.30
2023-05-09T05:38:09.326Z,3.67
2023-05-09T05:39:42.844Z,3.30
2023-05-09T05:41:17.981Z,3.47
2023-05-09T05:42:51.765Z,3.50
2023-05-09T05:44:24.831Z,3.10
2023-05-09T05:45:58.182Z,3.10
2023-05-09T05:47:34.102Z,3.50
2023-05-09T05:49:07.545Z,2.93
2023-05-09T05:50:40.773Z,3.20
2023-05-09T05:52:17.728Z,3.50
2023-05-09T05:53:51.634Z,3.10
2023-05-09T05:55:24.822Z,3.60
2023-05-09T05:56:59.917Z,3.47
2023-05-09T05:58:33.115Z,3.63
2023-05-09T06:00:09.352Z,3.10
2023-05-09T06:01:46.553Z,3.10
2023-05-09T06:03:19.980Z,3.30
2023-05-09T06:05:01.636Z,2.87
2023-05-09T06:06:34.862Z,3.27
2023-05-09T06:08:08.287Z,3.07
2023-05-09T06:09:41.406Z,3.00
2023-05-09T06:11:14.616Z,3.53
2023-05-09T06:12:49.107Z,3.00
2023-05-09T06:14:22.309Z,3.00
2023-05-09T06:16:01.910Z,3.20
2023-05-09T06:17:41.275Z,3.40
2023-05-09T06:19:14.453Z,3.27
2023-05-09T06:20:47.529Z,3.37
2023-05-09T06:22:20.640Z,3.60
2023-05-09T06:25:29.876Z,3.20
2023-05-09T06:27:03.029Z,3.63
2023-05-09T06:28:37.544Z,3.30
2023-05-09T06:30:24.605Z,3.03
2023-05-09T06:31:59.823Z,3.50
2023-05-09T06:33:33.009Z,3.00
2023-05-09T06:35:06.936Z,3.03
2023-05-09T06:36:40.203Z,3.27
2023-05-09T06:38:13.277Z,3.30
2023-05-09T06:39:46.317Z,3.43
2023-05-09T06:41:19.448Z,3.40
2023-05-09T06:42:52.499Z,3.20
2023-05-09T06:44:28.131Z,3.30
2023-05-09T06:46:01.270Z,3.73
2023-05-09T06:47:34.401Z,3.17
2023-05-09T06:49:07.519Z,3.10
2023-05-09T06:50:40.683Z,3.47
2023-05-09T06:52:15.771Z,3.73
2023-05-09T06:53:48.837Z,3.60
2023-05-09T06:55:21.957Z,3.23
2023-05-09T06:56:55.138Z,3.40
2023-05-09T06:58:29.248Z,3.37
2023-05-09T07:00:04.836Z,3.27
2023-05-09T07:01:38.217Z,3.50
2023-05-09T07:03:11.719Z,3.50
2023-05-09T07:04:45.046Z,3.27
2023-05-09T07:06:18.362Z,3.23
2023-05-09T07:07:51.749Z,3.23
2023-05-09T07:09:27.897Z,3.50
2023-05-09T07:11:01.005Z,3.27
2023-05-09T07:12:34.237Z,3.30
2023-05-09T07:14:07.333Z,3.40
2023-05-09T07:15:43.144Z,3.23
2023-05-09T07:17:23.668Z,3.20
2023-05-09T07:18:57.411Z,3.27
2023-05-09T07:20:30.576Z,3.47
2023-05-09T07:22:03.683Z,3.43
2023-05-09T07:23:36.823Z,3.53
2023-05-09T07:25:10.885Z,3.30
2023-05-09T07:26:44.049Z,3.90
2023-05-09T07:28:17.157Z,4.00
2023-05-09T07:29:52.276Z,3.13
2023-05-09T07:31:26.838Z,3.40
2023-05-09T07:33:01.371Z,3.60
2023-05-09T07:34:34.614Z,3.20
2023-05-09T07:36:07.974Z,3.60
2023-05-09T07:37:41.365Z,3.40
2023-05-09T07:39:14.614Z,3.70
2023-05-09T07:40:47.731Z,3.33
2023-05-09T07:42:20.945Z,3.57
2023-05-09T07:43:53.988Z,3.30
2023-05-09T07:45:27.183Z,2.90
2023-05-09T07:47:02.638Z,3.30
2023-05-09T07:48:35.719Z,3.40
2023-05-09T07:50:09.663Z,3.10
2023-05-09T07:51:42.821Z,3.40
2023-05-09T07:53:16.009Z,3.30
2023-05-09T07:54:49.119Z,3.23
2023-05-09T07:56:22.680Z,3.27
2023-05-09T07:57:55.861Z,3.50
2023-05-09T07:59:29.212Z,3.47
2023-05-09T08:01:02.308Z,3.73
2023-05-09T08:02:36.860Z,3.70
2023-05-09T08:04:10.176Z,3.03
2023-05-09T08:05:43.419Z,3.30
2023-05-09T08:07:16.674Z,3.40
2023-05-09T08:08:49.903Z,3.77
2023-05-09T08:10:23.516Z,3.20
2023-05-09T08:11:56.729Z,3.60
2023-05-09T08:13:29.897Z,3.17
2023-05-09T08:15:03.229Z,3.27
2023-05-09T08:16:36.429Z,3.40
2023-05-09T08:18:10.974Z,3.30
2023-05-09T08:19:44.097Z,2.80
2023-05-09T08:21:17.186Z,3.50
2023-05-09T08:22:50.269Z,3.10
2023-05-09T08:24:23.337Z,3.13
2023-05-09T08:25:56.621Z,3.20
2023-05-09T08:27:29.869Z,3.33
2023-05-09T08:29:02.973Z,3.40
2023-05-09T08:30:36.442Z,3.40
2023-05-09T08:32:09.999Z,3.30
2023-05-09T08:33:44.532Z,3.00
2023-05-09T08:35:17.927Z,3.37
2023-05-09T08:36:51.047Z,3.10
2023-05-09T08:38:24.784Z,2.90
2023-05-09T08:39:57.923Z,2.97
2023-05-09T08:41:36.103Z,2.70
2023-05-09T08:43:11.654Z,3.10
2023-05-09T08:44:44.743Z,3.17
2023-05-09T08:46:18.984Z,3.50
2023-05-09T08:47:52.544Z,3.30
2023-05-09T08:49:28.023Z,3.40
2023-05-09T08:51:02.215Z,3.20
2023-05-09T08:52:36.099Z,2.80
2023-05-09T08:54:09.521Z,3.20
2023-05-09T08:55:42.787Z,3.23
2023-05-09T08:57:16.342Z,3.10
2023-05-09T08:58:49.484Z,2.90
2023-05-09T09:00:22.888Z,2.80
2023-05-09T09:01:56.498Z,3.00
2023-05-09T09:03:29.968Z,3.00
2023-05-09T09:05:05.210Z,2.87
2023-05-09T09:06:40.549Z,3.13
2023-05-09T09:08:15.328Z,3.00
2023-05-09T09:09:49.947Z,3.07
2023-05-09T09:11:23.531Z,3.10
2023-05-09T09:12:59.170Z,3.20
2023-05-09T09:14:34.160Z,3.30
2023-05-09T09:16:11.223Z,3.30
2023-05-09T09:17:45.698Z,2.93
2023-05-09T09:19:19.683Z,2.93
2023-05-09T09:20:58.862Z,3.03
2023-05-09T09:22:34.798Z,3.20
2023-05-09T09:24:09.105Z,3.03
2023-05-09T09:25:42.196Z,2.83
2023-05-09T09:27:15.367Z,3.27
2023-05-09T09:28:48.546Z,3.30
2023-05-09T09:30:25.088Z,3.30
2023-05-09T09:31:58.303Z,3.30
2023-05-09T09:33:31.727Z,2.90
2023-05-09T09:35:09.426Z,2.90
2023-05-09T09:36:43.904Z,3.13
2023-05-09T09:38:17.714Z,2.73
2023-05-09T09:39:57.533Z,3.20
2023-05-09T09:41:34.569Z,3.17
2023-05-09T09:43:08.135Z,2.83
2023-05-09T09:44:41.197Z,2.87
2023-05-09T09:46:18.319Z,3.13
2023-05-09T09:47:51.526Z,3.07
2023-05-09T09:49:26.614Z,2.80
2023-05-09T09:51:05.094Z,3.10
2023-05-09T09:52:43.590Z,2.80
2023-05-09T09:54:16.752Z,2.87
2023-05-09T09:55:53.900Z,2.83
2023-05-09T09:57:37.094Z,2.53
2023-05-09T09:59:12.044Z,2.67
2023-05-09T10:00:45.884Z,2.83
2023-05-09T10:02:25.403Z,2.67
2023-05-09T10:03:58.512Z,3.10
2023-05-09T10:05:34.393Z,2.70
2023-05-09T10:07:12.747Z,2.97
2023-05-09T10:08:48.952Z,3.10
2023-05-09T10:10:22.242Z,2.70
2023-05-09T10:11:57.707Z,2.97
2023-05-09T10:13:31.695Z,3.23
2023-05-09T10:15:09.029Z,2.90
2023-05-09T10:16:44.604Z,2.70
2023-05-09T10:18:21.533Z,3.00
2023-05-09T10:19:55.664Z,2.60
2023-05-09T10:21:29.140Z,2.50
2023-05-09T10:23:03.715Z,2.57
2023-05-09T10:24:44.414Z,2.90
2023-05-09T10:26:19.559Z,2.40
2023-05-09T10:27:55.255Z,2.70
2023-05-09T10:29:31.922Z,2.70
2023-05-09T10:31:13.281Z,2.47
2023-05-09T10:32:53.075Z,2.80
2023-05-09T10:34:29.533Z,2.93
2023-05-09T10:36:04.510Z,2.80
2023-05-09T10:37:38.499Z,2.87
2023-05-09T10:39:11.839Z,2.83
2023-05-09T10:40:48.416Z,2.70
2023-05-09T10:42:22.977Z,2.63
2023-05-09T10:43:57.959Z,2.60
2023-05-09T10:45:31.311Z,2.50
2023-05-09T10:47:05.007Z,2.60
2023-05-09T10:48:39.466Z,2.37
2023-05-09T10:50:13.925Z,2.50
2023-05-09T10:51:47.030Z,2.77
2023-05-09T10:53:21.739Z,2.60
2023-05-09T10:55:02.549Z,2.70
2023-05-09T10:56:37.251Z,2.27
2023-05-09T10:58:25.492Z,2.47
2023-05-09T11:00:00.167Z,2.50
2023-05-09T11:01:35.426Z,2.60
2023-05-09T11:03:09.125Z,2.37
2023-05-09T11:04:44.149Z,2.57
2023-05-09T11:06:42.354Z,2.13
2023-05-09T11:08:26.312Z,2.47
2023-05-09T11:10:09.446Z,2.70
2023-05-09T11:11:52.691Z,2.30
2023-05-09T11:13:27.343Z,2.30
2023-05-09T11:15:07.844Z,2.57
2023-05-09T11:16:58.688Z,2.47
2023-05-09T11:18:33.403Z,2.50
2023-05-09T11:20:07.782Z,2.53
2023-05-09T11:22:01.819Z,2.27
2023-05-09T11:23:35.050Z,2.40
2023-05-09T11:25:10.599Z,2.60
2023-05-09T11:26:49.420Z,2.40
2023-05-09T11:28:30.216Z,2.67
2023-05-09T11:30:07.000Z,2.70
2023-05-09T11:32:06.463Z,2.50
2023-05-09T11:33:40.688Z,2.70
2023-05-09T11:35:15.804Z,2.37
2023-05-09T11:36:49.350Z,2.50
2023-05-09T11:38:23.178Z,2.50
2023-05-09T11:39:58.168Z,2.43
2023-05-09T11:41:31.949Z,2.03
2023-05-09T11:43:09.289Z,2.40
2023-05-09T11:44:42.432Z,2.60
2023-05-09T11:46:15.605Z,2.50
2023-05-09T11:47:50.017Z,2.40
2023-05-09T11:49:23.608Z,2.10
2023-05-09T11:50:56.715Z,2.37
2023-05-09T11:52:33.507Z,2.30
2023-05-09T11:54:08.027Z,2.70
2023-05-09T11:55:42.480Z,2.10
2023-05-09T11:57:17.525Z,2.40
2023-05-09T11:58:53.554Z,2.30
2023-05-09T12:00:27.492Z,2.13
2023-05-09T12:02:05.061Z,2.07
2023-05-09T12:03:44.233Z,2.30
2023-05-09T12:05:19.553Z,2.40
2023-05-09T12:06:53.454Z,2.77
2023-05-09T12:08:27.032Z,2.47
2023-05-09T12:10:02.798Z,2.23
2023-05-09T12:11:37.102Z,2.30
2023-05-09T12:13:12.086Z,2.20
2023-05-09T12:14:46.565Z,2.20
2023-05-09T12:16:21.566Z,2.10
2023-05-09T12:18:05.093Z,2.17
2023-05-09T12:19:38.352Z,2.00
2023-05-09T12:21:12.187Z,2.20
2023-05-09T12:22:45.360Z,2.50
2023-05-09T12:24:22.457Z,2.47
2023-05-09T12:25:56.931Z,2.20
2023-05-09T12:27:32.033Z,2.50
2023-05-09T12:29:05.557Z,2.50
2023-05-09T12:30:40.794Z,2.57
2023-05-09T12:32:15.078Z,2.40
2023-05-09T12:33:48.292Z,2.40
2023-05-09T12:35:23.533Z,2.30
2023-05-09T12:36:58.462Z,2.37
2023-05-09T12:38:31.697Z,2.10
2023-05-09T12:40:07.186Z,2.77
2023-05-09T12:41:57.326Z,2.50
2023-05-09T12:43:35.610Z,2.13
2023-05-09T12:45:10.665Z,2.30
2023-05-09T12:46:54.939Z,2.20
2023-05-09T12:48:28.224Z,2.57
2023-05-09T12:50:01.991Z,2.50
2023-05-09T12:51:35.176Z,2.97
2023-05-09T12:53:08.258Z,2.53
2023-05-09T12:54:47.463Z,2.50
2023-05-09T12:56:22.911Z,2.40
2023-05-09T12:58:00.802Z,2.40
2023-05-09T12:59:34.068Z,2.57
2023-05-09T13:01:07.359Z,2.50
2023-05-09T13:02:42.543Z,2.30
2023-05-09T13:04:15.727Z,2.60
2023-05-09T13:05:55.606Z,2.50
2023-05-09T13:07:28.678Z,2.10
2023-05-09T13:09:02.940Z,2.43
2023-05-09T13:10:36.243Z,2.93
2023-05-09T13:12:10.076Z,2.40
2023-05-09T13:13:43.447Z,2.47
2023-05-09T13:15:17.211Z,2.50
2023-05-09T13:16:50.596Z,2.50
2023-05-09T13:18:25.381Z,2.50
2023-05-09T13:19:58.466Z,2.50
2023-05-09T13:21:31.595Z,2.40
2023-05-09T13:23:04.671Z,2.77
2023-05-09T13:24:37.837Z,2.70
2023-05-09T13:26:12.062Z,2.80
2023-05-09T13:27:45.166Z,2.73
2023-05-09T13:29:18.248Z,2.70
2023-05-09T13:30:51.344Z,2.50
2023-05-09T13:32:24.894Z,2.60
2023-05-09T13:33:59.350Z,2.57
2023-05-09T13:35:32.530Z,2.40
2023-05-09T13:37:05.624Z,2.60
2023-05-09T13:38:40.634Z,2.90
2023-05-09T13:40:14.965Z,2.40
2023-05-09T13:41:48.709Z,2.50
2023-05-09T13:43:21.870Z,2.60
2023-05-09T13:44:55.022Z,2.43
2023-05-09T13:46:28.210Z,2.70
2023-05-09T13:48:01.464Z,2.50
2023-05-09T13:49:36.747Z,2.80
2023-05-09T13:51:11.054Z,2.80
2023-05-09T13:52:44.453Z,3.50
2023-05-09T13:54:19.684Z,2.77
2023-05-09T13:55:52.798Z,3.00
2023-05-09T13:57:25.920Z,2.83
2023-05-09T13:58:59.045Z,2.90
2023-05-09T14:00:32.266Z,4.40
2023-05-09T14:02:05.664Z,2.70
2023-05-09T14:03:39.037Z,4.70
2023-05-09T14:05:13.609Z,2.93
2023-05-09T14:06:48.280Z,2.93
2023-05-09T14:08:22.236Z,2.80
2023-05-09T14:10:10.562Z,2.90
2023-05-09T14:11:44.785Z,2.90
2023-05-09T14:13:18.230Z,3.03
2023-05-09T14:14:51.364Z,2.60
2023-05-09T14:16:24.535Z,3.00
2023-05-09T14:17:58.071Z,3.17
2023-05-09T14:19:31.279Z,2.73
2023-05-09T14:21:05.959Z,2.67
2023-05-09T14:22:39.056Z,3.03
2023-05-09T14:24:15.000Z,2.97
2023-05-09T14:25:48.884Z,2.73
2023-05-09T14:27:22.155Z,3.70
2023-05-09T14:28:55.542Z,2.73
2023-05-09T14:30:28.677Z,3.00
2023-05-09T14:32:01.874Z,2.90
2023-05-09T14:33:36.091Z,3.00
2023-05-09T14:35:10.351Z,3.30
2023-05-09T14:36:44.816Z,3.07
2023-05-09T14:38:17.987Z,3.60
2023-05-09T14:39:51.108Z,3.10
2023-05-09T14:41:24.297Z,3.33
2023-05-09T14:42:57.380Z,2.83
2023-05-09T14:44:30.463Z,2.90
2023-05-09T14:46:03.751Z,3.10
2023-05-09T14:47:37.348Z,3.30
2023-05-09T14:49:10.857Z,3.27
2023-05-09T14:50:43.947Z,3.00
2023-05-09T14:52:18.571Z,2.93
2023-05-09T14:53:53.360Z,3.20
2023-05-09T14:55:26.782Z,3.20
2023-05-09T14:57:02.005Z,3.20
2023-05-09T14:58:35.755Z,3.03
2023-05-09T15:00:20.111Z,3.00
2023-05-09T15:01:55.260Z,2.90
2023-05-09T15:03:28.672Z,3.07
2023-05-09T15:05:01.758Z,2.97
2023-05-09T15:06:34.940Z,3.07
2023-05-09T15:08:09.607Z,2.90
2023-05-09T15:09:42.754Z,3.00
2023-05-09T15:11:15.832Z,3.10
2023-05-09T15:12:48.996Z,3.00
2023-05-09T15:14:22.109Z,3.00
2023-05-09T15:15:55.236Z,3.00
2023-05-09T15:17:28.325Z,3.40
2023-05-09T15:19:01.701Z,3.13
2023-05-09T15:20:35.795Z,3.17
2023-05-09T15:22:09.612Z,3.40
2023-05-09T15:23:44.248Z,3.10
2023-05-09T15:25:18.462Z,3.10
2023-05-09T15:26:51.570Z,3.53
2023-05-09T15:28:24.725Z,3.33
2023-05-09T15:29:57.844Z,3.10
2023-05-09T15:31:34.205Z,2.90
2023-05-09T15:33:07.506Z,3.37
2023-05-09T15:34:40.688Z,3.17
2023-05-09T15:36:13.808Z,3.20
2023-05-09T15:37:47.126Z,3.20
2023-05-09T15:39:21.628Z,3.57
2023-05-09T15:40:54.729Z,3.03
2023-05-09T15:42:28.159Z,3.63
2023-05-09T15:44:01.232Z,3.17
2023-05-09T15:45:34.342Z,3.23
2023-05-09T15:47:07.464Z,3.30
2023-05-09T15:48:40.531Z,3.57
2023-05-09T15:50:13.845Z,3.60
2023-05-09T15:51:47.288Z,3.40
2023-05-09T15:53:21.193Z,3.47
2023-05-09T15:54:55.895Z,3.13
2023-05-09T15:56:29.041Z,3.60
2023-05-09T15:58:02.736Z,3.23
2023-05-09T15:59:35.823Z,3.43
2023-05-09T16:01:11.460Z,3.23
2023-05-09T16:02:44.802Z,3.60
2023-05-09T16:04:18.057Z,3.37
2023-05-09T16:05:51.437Z,3.47
2023-05-09T16:07:24.594Z,3.27
2023-05-09T16:08:57.921Z,3.80
2023-05-09T16:10:32.360Z,3.47
2023-05-09T16:12:06.020Z,3.90
2023-05-09T16:13:39.160Z,3.70
2023-05-09T16:15:13.013Z,3.40
2023-05-09T16:16:47.145Z,3.47
2023-05-09T16:18:20.278Z,3.43
2023-05-09T16:19:53.362Z,3.23
2023-05-09T16:21:29.186Z,3.73
2023-05-09T16:23:02.916Z,3.60
2023-05-09T16:24:37.372Z,3.40
2023-05-09T16:26:11.895Z,3.03
2023-05-09T16:27:45.350Z,3.40
2023-05-09T16:29:18.473Z,3.43
2023-05-09T16:30:52.106Z,3.57
2023-05-09T16:32:25.230Z,3.87
2023-05-09T16:33:58.482Z,3.37
2023-05-09T16:35:31.588Z,3.27
2023-05-09T16:37:05.086Z,3.37
2023-05-09T16:38:38.234Z,3.50
2023-05-09T16:40:12.563Z,3.40
2023-05-09T16:41:47.046Z,3.47
2023-05-09T16:43:20.651Z,3.33
2023-05-09T16:44:53.748Z,3.10
2023-05-09T16:46:26.958Z,3.60
2023-05-09T16:48:01.971Z,3.80
2023-05-09T16:49:35.492Z,3.67
2023-05-09T16:51:08.600Z,3.60
2023-05-09T16:52:41.723Z,3.07
2023-05-09T16:54:14.916Z,3.30
2023-05-09T16:55:48.114Z,3.70
2023-05-09T16:57:22.588Z,3.47
2023-05-09T16:58:55.738Z,3.43
2023-05-09T17:00:29.080Z,3.33
2023-05-09T17:02:02.203Z,3.53
2023-05-09T17:03:35.277Z,3.40
2023-05-09T17:05:09.429Z,3.23
2023-05-09T17:06:42.633Z,3.17
2023-05-09T17:08:15.762Z,3.20
2023-05-09T17:09:49.639Z,3.00
2023-05-09T17:11:23.101Z,3.57
2023-05-09T17:12:58.296Z,3.00
2023-05-09T17:14:31.432Z,3.10
2023-05-09T17:16:04.869Z,3.27
2023-05-09T17:17:37.991Z,2.73
2023-05-09T17:19:11.246Z,2.90
2023-05-09T17:20:44.361Z,2.90
2023-05-09T17:22:17.546Z,2.90
2023-05-09T17:23:53.803Z,2.90
2023-05-09T17:25:26.987Z,2.93
2023-05-09T17:27:00.177Z,2.93
2023-05-09T17:28:34.654Z,2.97
2023-05-09T17:30:09.442Z,2.90
2023-05-09T17:31:42.533Z,2.83
2023-05-09T17:33:15.712Z,3.23
2023-05-09T17:34:48.870Z,2.90
2023-05-09T17:36:22.074Z,3.10
2023-05-09T17:37:55.256Z,2.80
2023-05-09T17:39:28.593Z,2.77
2023-05-09T17:41:01.759Z,2.77
2023-05-09T17:42:34.865Z,2.90
2023-05-09T17:44:09.357Z,2.67
2023-05-09T17:45:42.670Z,3.10
2023-05-09T17:47:15.936Z,2.90
2023-05-09T17:48:49.040Z,2.77
2023-05-09T17:50:22.899Z,2.77
2023-05-09T17:51:56.907Z,2.57
2023-05-09T17:53:30.688Z,2.83
2023-05-09T17:55:05.255Z,2.77
2023-05-09T17:56:38.314Z,2.63
2023-05-09T17:58:11.507Z,3.00
2023-05-09T17:59:47.947Z,3.10
2023-05-09T18:01:21.632Z,2.90
2023-05-09T18:02:56.260Z,2.70
2023-05-09T18:04:31.043Z,3.00
2023-05-09T18:06:04.508Z,2.87
2023-05-09T18:07:37.821Z,3.03
2023-05-09T18:09:10.967Z,3.03
2023-05-09T18:10:44.324Z,3.00
2023-05-09T18:12:17.409Z,2.93
2023-05-09T18:13:50.535Z,2.67
2023-05-09T18:15:26.151Z,3.03
2023-05-09T18:16:59.284Z,3.10
2023-05-09T18:18:32.507Z,2.77
2023-05-09T18:20:07.865Z,3.10
2023-05-09T18:21:41.024Z,2.90
2023-05-09T18:23:14.716Z,3.00
2023-05-09T18:24:48.059Z,2.60
2023-05-09T18:26:21.898Z,3.23
2023-05-09T18:27:54.982Z,3.40
2023-05-09T18:29:28.091Z,3.30
2023-05-09T18:31:02.717Z,3.00
2023-05-09T18:32:35.935Z,3.27
2023-05-09T18:34:09.188Z,3.17
2023-05-09T18:35:42.676Z,3.23
2023-05-09T18:37:16.850Z,3.10
2023-05-09T18:38:50.268Z,3.30
2023-05-09T18:40:23.352Z,3.27
2023-05-09T18:41:56.670Z,3.10
2023-05-09T18:43:30.750Z,3.23
2023-05-09T18:45:05.844Z,3.20
2023-05-09T18:46:41.553Z,3.00
2023-05-09T18:48:15.738Z,3.07
2023-05-09T18:49:48.875Z,3.63
2023-05-09T18:51:22.153Z,3.37
2023-05-09T18:52:55.388Z,3.00
2023-05-09T18:54:28.525Z,3.30
2023-05-09T18:56:01.755Z,3.30
2023-05-09T18:57:34.877Z,3.30
2023-05-09T18:59:08.461Z,3.40
2023-05-09T19:00:42.758Z,3.20
2023-05-09T19:02:17.477Z,3.17
2023-05-09T19:03:54.100Z,3.30
2023-05-09T19:05:27.496Z,3.40
2023-05-09T19:07:00.695Z,3.17
2023-05-09T19:08:33.787Z,3.00
2023-05-09T19:10:08.797Z,2.90
2023-05-09T19:11:42.073Z,3.13
2023-05-09T19:13:16.539Z,3.30
2023-05-09T19:14:49.846Z,3.43
2023-05-09T19:16:26.343Z,3.40
2023-05-09T19:18:00.869Z,3.57
2023-05-09T19:19:34.509Z,3.60
2023-05-09T19:21:07.562Z,3.33
2023-05-09T19:22:45.507Z,3.17
2023-05-09T19:24:18.572Z,3.30
2023-05-09T19:25:53.848Z,3.20
2023-05-09T19:27:26.907Z,3.70
2023-05-09T19:29:04.103Z,3.07
2023-05-09T19:30:37.390Z,3.07
2023-05-09T19:32:10.722Z,3.43
2023-05-09T19:33:46.353Z,3.20
2023-05-09T19:35:19.598Z,3.43
2023-05-09T19:36:52.707Z,3.30
2023-05-09T19:38:25.925Z,3.23
2023-05-09T19:39:59.021Z,3.20
2023-05-09T19:41:32.171Z,3.53
2023-05-09T19:43:05.487Z,2.93
2023-05-09T19:44:38.971Z,3.30
2023-05-09T19:46:12.085Z,3.70
2023-05-09T19:47:45.270Z,3.73
2023-05-09T19:49:19.777Z,3.60
2023-05-09T19:50:57.500Z,3.00
2023-05-09T19:52:31.715Z,3.30
2023-05-09T19:54:05.057Z,3.23
2023-05-09T19:55:38.301Z,3.10
2023-05-09T19:57:12.394Z,3.13
2023-05-09T19:58:49.535Z,3.40
2023-05-09T20:00:22.768Z,3.10
2023-05-09T20:01:55.980Z,3.17
2023-05-09T20:03:29.317Z,3.13
2023-05-09T20:05:04.563Z,3.13
2023-05-09T20:06:38.028Z,3.53
2023-05-09T20:08:11.190Z,3.40
2023-05-09T20:09:44.464Z,3.20
2023-05-09T20:11:18.312Z,3.67
2023-05-09T20:12:52.953Z,3.17
2023-05-09T20:14:26.130Z,3.10
2023-05-09T20:16:00.174Z,3.50
2023-05-09T20:17:33.411Z,3.47
2023-05-09T20:19:07.577Z,3.23
2023-05-09T20:20:42.344Z,3.33
2023-05-09T20:22:15.461Z,3.10
2023-05-09T20:23:48.572Z,3.47
2023-05-09T20:25:21.837Z,3.67
2023-05-09T20:26:55.632Z,3.60
2023-05-09T20:28:28.962Z,3.23
2023-05-09T20:30:02.053Z,2.90
2023-05-09T20:31:35.409Z,3.13
2023-05-09T20:33:08.624Z,3.70
2023-05-09T20:34:41.926Z,3.27
2023-05-09T20:36:16.612Z,3.43
2023-05-09T20:37:49.785Z,2.97
2023-05-09T20:39:23.232Z,3.17
2023-05-09T20:40:56.378Z,3.27
2023-05-09T20:42:29.908Z,3.30
2023-05-09T20:44:04.605Z,3.47
2023-05-09T20:45:38.271Z,3.60
2023-05-09T20:47:11.373Z,3.33
2023-05-09T20:48:44.508Z,3.20
2023-05-09T20:50:18.485Z,3.20
2023-05-09T20:51:53.909Z,3.23
2023-05-09T20:53:30.170Z,3.33
2023-05-09T20:55:03.459Z,3.40
2023-05-09T20:56:36.570Z,3.33
2023-05-09T20:58:09.696Z,3.57
2023-05-09T20:59:44.045Z,3.50